CheckWX is a tool to help pilots better visualize weather data.  It is not intended as a substitute for an official pre-flight weather briefing.

04:41:05 UTC

KMCK METAR
Mc Cook Ben Nelson Regional Airport
Mc Cook, Nebraska, USA
Current

48 mins ago

KMCK 240353Z AUTO 09006KT 10SM CLR 19/14 A3022 RMK AO2 SLP214 T01940139
Observed
Jul-24 @ 03:53 UTC
Wind
  • 090° at 6 KTS
Visibility
10 SM
Flight Rules
VFR
Cloud Levels
  • Clear skies
Temperature
19°C / 66°F
Dewpoint
14°C / 57°F
Humidity
73%
Altimeter
30.22" Hg
Pressure
1023.42 hPa
Previous

2 hours ago

KMCK 240253Z AUTO 10007KT 10SM CLR 21/14 A3021 RMK AO2 SLP210 T02060139 53003
Observed
Jul-24 @ 02:53 UTC
Wind
  • 100° at 7 KTS
Visibility
10 SM
Flight Rules
VFR
Cloud Levels
  • Clear skies
Temperature
21°C / 70°F
Dewpoint
14°C / 57°F
Humidity
64%
Altimeter
30.21" Hg
Pressure
1023.02 hPa
Previous

3 hours ago

KMCK 240153Z AUTO 11008KT 10SM CLR 23/13 A3020 RMK AO2 SLP210 T02330133
Observed
Jul-24 @ 01:53 UTC
Wind
  • 110° at 8 KTS
Visibility
10 SM
Flight Rules
VFR
Cloud Levels
  • Clear skies
Temperature
23°C / 73°F
Dewpoint
13°C / 55°F
Humidity
53%
Altimeter
30.2" Hg
Pressure
1022.72 hPa